Time;durP1;ratioP1;P1;durP2;ratioP2;P2;SDS_P1;SDS_P2;PMS_P1;PMS_P2;Temp;Humidity;BMP_temperature;BMP_pressure;BME280_temperature;BME280_humidity;BME280_pressure;Samples;Min_cycle;Max_cycle;Signal;HPM_P1;HPM_P2
2020/12/04 00:02:14;;;;;;;10.00;7.70;;;;;;;4.44;100.00;97566.81;4922015;29;20504;-36
2020/12/04 00:04:59;;;;;;;8.63;7.00;;;;;;;4.46;100.00;97555.66;4922132;29;20248;-35
2020/12/04 00:07:45;;;;;;;10.10;7.50;;;;;;;4.42;100.00;97541.28;4922059;29;20207;-34
2020/12/04 00:10:31;;;;;;;9.07;6.77;;;;;;;4.43;100.00;97530.16;4921891;29;20212;-35
2020/12/04 00:13:17;;;;;;;12.50;8.33;;;;;;;4.52;100.00;97520.56;4921735;29;20203;-37
2020/12/04 00:16:03;;;;;;;10.27;7.63;;;;;;;4.39;100.00;97522.63;4921879;29;20266;-38
2020/12/04 00:18:50;;;;;;;11.60;7.37;;;;;;;4.29;100.00;97513.53;4921414;29;20311;-33
2020/12/04 00:21:36;;;;;;;11.40;8.27;;;;;;;4.31;100.00;97506.66;4921500;29;20207;-38
2020/12/04 00:24:22;;;;;;;11.97;7.40;;;;;;;4.24;100.00;97489.78;4921573;29;20210;-36
2020/12/04 00:27:08;;;;;;;11.90;8.40;;;;;;;4.34;100.00;97484.38;4921185;29;20266;-35
2020/12/04 00:29:54;;;;;;;10.47;7.67;;;;;;;4.20;100.00;97468.56;4920941;29;20208;-33
2020/12/04 00:32:40;;;;;;;10.43;7.30;;;;;;;4.11;100.00;97472.25;4921570;29;20202;-33
2020/12/04 00:35:26;;;;;;;13.60;8.90;;;;;;;4.06;100.00;97450.22;4921308;29;20208;-34
2020/12/04 00:38:11;;;;;;;15.13;8.80;;;;;;;4.06;100.00;97443.41;4921041;29;20233;-35
2020/12/04 00:40:57;;;;;;;12.83;8.23;;;;;;;4.04;100.00;97445.16;4921356;29;20692;-33
2020/12/04 00:43:42;;;;;;;10.70;8.17;;;;;;;4.01;100.00;97450.34;4921477;29;20475;-39
2020/12/04 00:46:29;;;;;;;12.67;8.80;;;;;;;4.12;100.00;97445.78;4921345;29;20494;-35
2020/12/04 00:49:14;;;;;;;14.40;8.90;;;;;;;4.09;100.00;97438.19;4920930;29;20298;-36
2020/12/04 00:52:00;;;;;;;12.43;8.17;;;;;;;4.10;100.00;97444.16;4921279;29;20201;-38
2020/12/04 00:54:46;;;;;;;12.43;8.23;;;;;;;4.19;100.00;97441.34;4921416;29;20207;-36
2020/12/04 00:57:31;;;;;;;11.63;8.37;;;;;;;4.22;100.00;97438.66;4921113;29;20211;-36
2020/12/04 01:00:17;;;;;;;10.87;8.17;;;;;;;4.23;100.00;97432.66;4921193;29;20211;-38
2020/12/04 01:03:03;;;;;;;13.13;8.53;;;;;;;4.29;100.00;97434.22;4921261;29;20209;-35
2020/12/04 01:05:49;;;;;;;9.57;7.17;;;;;;;4.41;100.00;97438.97;4920957;29;20497;-33
2020/12/04 01:08:35;;;;;;;9.10;6.80;;;;;;;4.61;100.00;97438.34;4920834;29;20612;-32
2020/12/04 01:11:20;;;;;;;9.13;7.00;;;;;;;4.73;100.00;97417.50;4920826;29;20205;-32
2020/12/04 01:14:06;;;;;;;9.70;6.43;;;;;;;4.85;100.00;97414.53;4921003;29;20605;-35
2020/12/04 01:16:52;;;;;;;8.63;6.47;;;;;;;4.85;100.00;97401.72;4921105;29;20210;-35
2020/12/04 01:19:38;;;;;;;8.23;6.60;;;;;;;5.03;100.00;97411.38;4920904;29;20252;-35
2020/12/04 01:22:25;;;;;;;7.33;5.87;;;;;;;4.90;100.00;97411.84;5350541;23;20467;-73
2020/12/04 01:25:11;;;;;;;9.37;7.03;;;;;;;5.01;100.00;97397.78;4939668;29;20393;-71
2020/12/04 01:27:55;;;;;;;8.87;6.17;;;;;;;4.91;100.00;97395.59;4939552;29;20274;-72
2020/12/04 01:33:50;;;;;;;10.37;6.83;;;;;;;5.09;100.00;97393.25;4937631;29;20223;-33
2020/12/04 01:36:37;;;;;;;8.43;6.10;;;;;;;5.08;100.00;97395.84;4939346;29;20207;-33
2020/12/04 01:39:24;;;;;;;9.97;5.80;;;;;;;5.01;100.00;97392.66;4939689;29;20227;-35
2020/12/04 01:42:10;;;;;;;8.63;6.20;;;;;;;5.05;100.00;97385.72;4939705;29;20208;-34
2020/12/04 01:44:56;;;;;;;8.23;6.03;;;;;;;5.10;100.00;97382.13;4939736;29;20490;-35
2020/12/04 01:47:42;;;;;;;7.37;5.83;;;;;;;5.18;100.00;97382.72;4939675;29;20259;-36
2020/12/04 01:50:29;;;;;;;7.50;5.47;;;;;;;5.20;100.00;97374.94;4939739;29;20279;-32
2020/12/04 01:53:16;;;;;;;8.17;6.33;;;;;;;5.14;100.00;97368.31;4943178;29;20494;-34
2020/12/04 01:56:02;;;;;;;9.67;6.63;;;;;;;5.09;100.00;97366.78;4943361;29;20208;-37
2020/12/04 01:58:48;;;;;;;10.03;6.20;;;;;;;4.87;100.00;97365.84;4943242;29;20224;-36
2020/12/04 02:01:36;;;;;;;8.10;6.20;;;;;;;4.80;100.00;97358.34;4943241;29;20206;-36
2020/12/04 02:04:21;;;;;;;8.83;6.50;;;;;;;4.85;100.00;97358.19;4942731;29;20199;-33
2020/12/04 02:07:14;;;;;;;9.50;6.77;;;;;;;4.95;100.00;97357.03;4942790;29;20204;-36
2020/12/04 02:10:06;;;;;;;11.13;7.07;;;;;;;4.96;100.00;97345.06;4942663;29;20236;-35
2020/12/04 02:12:55;;;;;;;9.20;6.60;;;;;;;4.89;100.00;97348.69;4943034;29;20267;-38
2020/12/04 02:15:44;;;;;;;10.00;7.00;;;;;;;4.82;100.00;97348.06;4942642;29;20201;-33
2020/12/04 02:18:30;;;;;;;10.83;7.63;;;;;;;4.87;100.00;97342.78;4942622;29;20280;-33
2020/12/04 02:21:17;;;;;;;9.87;7.40;;;;;;;4.81;100.00;97343.81;4942741;29;20206;-35
2020/12/04 02:24:05;;;;;;;9.57;6.90;;;;;;;4.76;100.00;97344.00;4942853;29;20294;-33
2020/12/04 02:26:52;;;;;;;11.50;7.97;;;;;;;4.73;100.00;97341.53;4942732;29;20204;-33
2020/12/04 02:29:40;;;;;;;10.57;7.40;;;;;;;4.76;100.00;97343.16;4942995;29;20351;-35
2020/12/04 02:32:26;;;;;;;11.43;7.43;;;;;;;4.75;100.00;97344.03;4942319;29;20686;-32
2020/12/04 02:35:11;;;;;;;12.00;8.43;;;;;;;4.67;100.00;97335.78;4942520;29;20211;-36
2020/12/04 02:37:59;;;;;;;11.93;8.40;;;;;;;4.64;100.00;97329.03;4941994;29;20231;-33
2020/12/04 02:40:45;;;;;;;11.83;8.77;;;;;;;4.53;100.00;97326.00;4942240;29;20302;-33
2020/12/04 02:43:32;;;;;;;13.07;8.97;;;;;;;4.50;100.00;97324.34;4942449;29;20207;-35
2020/12/04 02:46:17;;;;;;;12.67;9.27;;;;;;;4.42;100.00;97317.81;4942126;29;20475;-35
2020/12/04 02:49:03;;;;;;;14.37;8.73;;;;;;;4.37;100.00;97319.69;4941920;29;20290;-36
2020/12/04 02:51:50;;;;;;;13.57;9.07;;;;;;;4.33;100.00;97310.44;4941749;29;20203;-32
2020/12/04 02:54:37;;;;;;;13.70;9.87;;;;;;;4.37;100.00;97310.28;4941790;29;20278;-32
2020/12/04 02:57:23;;;;;;;12.30;9.13;;;;;;;4.36;100.00;97305.22;4942072;29;20225;-32
2020/12/04 03:00:10;;;;;;;14.77;9.20;;;;;;;4.30;100.00;97307.97;4942049;29;20195;-32
2020/12/04 03:02:56;;;;;;;12.30;9.30;;;;;;;4.35;100.00;97309.50;4941030;29;20201;-33
2020/12/04 03:05:43;;;;;;;15.27;10.17;;;;;;;4.34;100.00;97299.31;4942331;29;20613;-35
2020/12/04 03:08:29;;;;;;;12.07;8.73;;;;;;;4.33;100.00;97303.59;4942142;29;20658;-37
2020/12/04 03:11:19;;;;;;;13.60;9.50;;;;;;;4.45;100.00;97302.34;4942142;29;20255;-35
2020/12/04 03:14:05;;;;;;;12.50;8.83;;;;;;;4.31;100.00;97284.91;4941565;29;20206;-34
2020/12/04 03:16:51;;;;;;;14.87;9.03;;;;;;;4.42;100.00;97284.53;4941744;29;20260;-36
2020/12/04 03:19:37;;;;;;;13.30;9.27;;;;;;;4.47;100.00;97280.94;4941513;29;20325;-34
2020/12/04 03:22:24;;;;;;;11.93;9.03;;;;;;;4.62;100.00;97277.03;4941790;29;20212;-33
2020/12/04 03:25:10;;;;;;;11.97;9.00;;;;;;;4.64;100.00;97285.50;4941540;29;20202;-33
2020/12/04 03:27:57;;;;;;;11.37;7.77;;;;;;;4.72;100.00;97278.41;4941764;29;20355;-33
2020/12/04 03:30:44;;;;;;;11.87;8.17;;;;;;;4.85;100.00;97268.56;4941310;29;20226;-34
2020/12/04 03:33:30;;;;;;;10.70;7.40;;;;;;;5.13;100.00;97264.16;4940997;29;20656;-35
2020/12/04 03:36:17;;;;;;;8.83;6.87;;;;;;;5.19;100.00;97258.00;4941390;29;20652;-33
2020/12/04 03:39:03;;;;;;;8.00;6.90;;;;;;;5.36;100.00;97257.38;4940727;29;20224;-36
2020/12/04 03:41:49;;;;;;;9.07;6.37;;;;;;;5.51;100.00;97254.25;4940835;29;20534;-34
2020/12/04 03:44:37;;;;;;;7.10;5.83;;;;;;;5.48;100.00;97256.91;4941237;29;20200;-34
2020/12/04 03:47:23;;;;;;;10.93;6.97;;;;;;;5.54;100.00;97246.44;4941175;29;20220;-34
2020/12/04 03:50:09;;;;;;;11.33;7.00;;;;;;;5.45;100.00;97251.91;4941527;29;20257;-35
2020/12/04 03:52:56;;;;;;;8.77;6.40;;;;;;;5.52;100.00;97237.97;4941538;29;20737;-35
2020/12/04 03:55:42;;;;;;;8.43;6.17;;;;;;;5.56;100.00;97239.53;4940946;29;20212;-34
2020/12/04 03:58:28;;;;;;;6.83;6.13;;;;;;;5.47;100.00;97238.13;4940941;29;20225;-33
2020/12/04 04:01:16;;;;;;;7.87;6.13;;;;;;;5.53;100.00;97247.31;4938641;29;20216;-36
2020/12/04 04:04:03;;;;;;;5.63;4.87;;;;;;;5.69;100.00;97233.03;4936968;29;20264;-32
2020/12/04 04:06:49;;;;;;;8.37;5.60;;;;;;;5.64;100.00;97223.84;4940913;29;20205;-33
2020/12/04 04:09:35;;;;;;;5.60;4.23;;;;;;;5.79;100.00;97223.25;4940837;29;20253;-32
2020/12/04 04:12:21;;;;;;;5.30;3.77;;;;;;;5.93;100.00;97220.19;4940517;29;20232;-33
2020/12/04 04:15:07;;;;;;;5.37;4.03;;;;;;;5.99;100.00;97213.09;4940492;29;20209;-33
2020/12/04 04:17:55;;;;;;;4.43;4.03;;;;;;;5.96;100.00;97212.38;4941193;29;20297;-32
2020/12/04 04:20:41;;;;;;;4.07;3.77;;;;;;;5.94;100.00;97201.31;4940516;29;20204;-32
2020/12/04 04:23:27;;;;;;;5.13;4.53;;;;;;;5.83;100.00;97199.97;4940760;29;20200;-33
2020/12/04 04:26:13;;;;;;;9.43;7.10;;;;;;;5.26;100.00;97205.63;4940381;29;20209;-34
2020/12/04 04:29:00;;;;;;;11.70;7.70;;;;;;;4.94;100.00;97206.81;4940763;29;20240;-33
2020/12/04 04:31:49;;;;;;;11.10;7.37;;;;;;;5.02;100.00;97196.25;4940142;29;20246;-36
2020/12/04 04:34:36;;;;;;;10.40;8.47;;;;;;;4.84;100.00;97203.72;4940712;29;20602;-34
2020/12/04 04:37:22;;;;;;;12.67;8.73;;;;;;;4.78;100.00;97203.97;4940601;29;20247;-34
2020/12/04 04:40:09;;;;;;;11.57;6.30;;;;;;;4.92;100.00;97200.06;4940133;29;20335;-34
2020/12/04 04:43:10;;;;;;;9.33;7.50;;;;;;;5.06;100.00;97196.09;4940497;29;20208;-33
2020/12/04 04:46:09;;;;;;;7.83;6.50;;;;;;;4.98;100.00;97195.56;4940248;29;20590;-35
2020/12/04 04:48:59;;;;;;;8.57;6.53;;;;;;;5.08;100.00;97185.81;4940029;29;20356;-33
2020/12/04 04:51:46;;;;;;;9.17;7.33;;;;;;;4.99;100.00;97186.16;4940070;29;20281;-32
2020/12/04 04:54:36;;;;;;;8.57;6.50;;;;;;;5.08;100.00;97194.31;4939836;29;20204;-36
2020/12/04 04:57:24;;;;;;;6.13;4.90;;;;;;;5.48;100.00;97195.38;4940208;29;20200;-34
2020/12/04 05:00:11;;;;;;;6.90;5.30;;;;;;;5.38;100.00;97189.78;4940390;29;20240;-32
2020/12/04 05:02:58;;;;;;;5.33;4.80;;;;;;;5.55;100.00;97201.97;4939633;29;20208;-35
2020/12/04 05:05:45;;;;;;;5.97;5.37;;;;;;;5.48;100.00;97193.66;4940315;29;20271;-35
2020/12/04 05:08:32;;;;;;;3.00;2.80;;;;;;;5.79;100.00;97185.63;4939730;29;20209;-34
2020/12/04 05:11:18;;;;;;;2.80;2.60;;;;;;;6.20;100.00;97196.78;4940112;29;20200;-37
2020/12/04 05:14:22;;;;;;;2.97;2.67;;;;;;;6.35;100.00;97195.34;4940337;29;20224;-34
2020/12/04 05:17:09;;;;;;;2.67;2.47;;;;;;;6.45;100.00;97203.47;4939980;29;20205;-34
2020/12/04 05:19:55;;;;;;;2.60;2.40;;;;;;;6.41;100.00;97200.19;4939683;29;20240;-33
2020/12/04 05:22:55;;;;;;;2.13;2.03;;;;;;;6.43;100.00;97206.09;4940035;29;20200;-37
2020/12/04 05:25:43;;;;;;;2.63;2.43;;;;;;;6.54;100.00;97221.06;4939960;29;20603;-35
2020/12/04 05:28:30;;;;;;;2.73;2.53;;;;;;;6.58;100.00;97217.50;4944138;29;20196;-33
2020/12/04 05:31:28;;;;;;;2.67;2.47;;;;;;;6.60;100.00;97209.69;4943669;29;20203;-34
2020/12/04 05:34:21;;;;;;;2.50;2.30;;;;;;;6.74;100.00;97218.50;4943696;29;20208;-35
2020/12/04 05:37:09;;;;;;;3.10;2.20;;;;;;;6.63;100.00;97220.69;4943746;29;20267;-34
2020/12/04 05:39:56;;;;;;;2.57;2.37;;;;;;;6.54;100.00;97221.91;4943513;29;20232;-39
2020/12/04 05:42:43;;;;;;;2.23;2.03;;;;;;;6.68;100.00;97217.91;4929976;29;20603;-35
2020/12/04 05:45:29;;;;;;;2.80;2.60;;;;;;;6.62;100.00;97218.16;4924487;29;20652;-33
2020/12/04 05:48:16;;;;;;;2.47;2.27;;;;;;;6.60;100.00;97212.25;4923928;29;20205;-37
2020/12/04 05:51:04;;;;;;;4.87;2.13;;;;;;;6.51;100.00;97223.78;4923867;29;20497;-34
2020/12/04 05:53:52;;;;;;;2.77;2.57;;;;;;;6.43;100.00;97223.25;4924004;29;20213;-35
2020/12/04 05:56:40;;;;;;;3.20;2.60;;;;;;;6.44;100.00;97230.06;4923745;29;20492;-32
2020/12/04 05:59:28;;;;;;;2.70;2.50;;;;;;;6.34;100.00;97233.91;4923205;29;20289;-36
2020/12/04 06:02:15;;;;;;;2.50;2.30;;;;;;;6.47;100.00;97235.91;4923696;29;20210;-32
2020/12/04 06:05:14;;;;;;;2.40;2.20;;;;;;;6.26;100.00;97225.69;4923674;29;20265;-35
2020/12/04 06:08:02;;;;;;;2.60;2.40;;;;;;;6.30;100.00;97228.06;4923116;29;20209;-36
2020/12/04 06:10:53;;;;;;;3.67;2.80;;;;;;;6.35;100.00;97233.00;4923239;29;20256;-34
2020/12/04 06:13:40;;;;;;;2.53;2.40;;;;;;;6.23;100.00;97232.59;4922813;29;20265;-35
2020/12/04 06:16:27;;;;;;;2.60;2.40;;;;;;;6.18;100.00;97233.72;4923144;29;20483;-38
2020/12/04 06:19:28;;;;;;;3.40;3.10;;;;;;;6.12;100.00;97239.06;4922558;29;20237;-36
2020/12/04 06:22:17;;;;;;;4.70;2.70;;;;;;;6.01;100.00;97238.66;4922706;29;20205;-36
2020/12/04 06:25:04;;;;;;;2.50;2.30;;;;;;;5.89;100.00;97229.72;4923159;29;20540;-32
2020/12/04 06:27:50;;;;;;;3.10;2.80;;;;;;;5.86;100.00;97230.63;4922086;29;20672;-36
2020/12/04 06:30:56;;;;;;;3.87;3.47;;;;;;;5.83;100.00;97227.34;4923063;29;20346;-37
2020/12/04 06:33:45;;;;;;;4.13;3.73;;;;;;;5.77;100.00;97231.00;4922931;29;20236;-35
2020/12/04 06:36:36;;;;;;;4.30;3.87;;;;;;;5.77;100.00;97225.88;4929701;29;20209;-34
2020/12/04 06:39:31;;;;;;;5.07;4.57;;;;;;;5.79;100.00;97233.53;4942330;29;20583;-37
2020/12/04 06:42:32;;;;;;;4.97;4.47;;;;;;;5.83;100.00;97248.72;4928975;29;20213;-36
2020/12/04 06:45:18;;;;;;;4.90;4.40;;;;;;;5.93;100.00;97240.69;4923045;29;20265;-36
2020/12/04 06:48:12;;;;;;;5.63;4.87;;;;;;;5.86;100.00;97245.19;4922843;29;20292;-37
2020/12/04 06:50:59;;;;;;;5.30;3.97;;;;;;;5.95;100.00;97244.03;4922585;29;20540;-34
2020/12/04 06:53:51;;;;;;;5.93;4.70;;;;;;;6.01;100.00;97249.75;4922574;29;20296;-36
2020/12/04 06:56:38;;;;;;;4.80;4.30;;;;;;;5.93;100.00;97256.94;4922904;29;20210;-33
2020/12/04 06:59:27;;;;;;;10.10;6.40;;;;;;;5.95;100.00;97260.28;4921877;29;20252;-36
2020/12/04 07:02:15;;;;;;;6.70;5.37;;;;;;;6.01;100.00;97262.56;4922705;29;20517;-37
2020/12/04 07:05:01;;;;;;;4.90;4.37;;;;;;;6.07;100.00;97267.47;4922177;29;20684;-32
2020/12/04 07:07:48;;;;;;;5.63;3.93;;;;;;;6.09;100.00;97278.50;4922428;29;20234;-36
2020/12/04 07:10:35;;;;;;;4.40;3.60;;;;;;;6.00;100.00;97272.91;4921881;29;20289;-38
2020/12/04 07:13:22;;;;;;;4.30;3.90;;;;;;;6.15;100.00;97278.28;4922118;29;20201;-35
2020/12/04 07:16:09;;;;;;;4.17;3.70;;;;;;;6.06;100.00;97278.63;4921774;29;20201;-35
2020/12/04 07:18:56;;;;;;;3.27;2.97;;;;;;;6.01;100.00;97283.09;4932071;29;20240;-35
2020/12/04 07:21:42;;;;;;;4.17;3.83;;;;;;;6.14;100.00;97274.03;4940853;29;20261;-35
2020/12/04 07:24:29;;;;;;;3.73;3.43;;;;;;;6.08;100.00;97283.72;4941161;29;20204;-34
2020/12/04 07:27:18;;;;;;;3.60;3.30;;;;;;;6.00;100.00;97285.72;4940973;29;20626;-34
2020/12/04 07:30:14;;;;;;;3.97;3.63;;;;;;;6.05;100.00;97288.94;4941151;29;20245;-33
2020/12/04 07:33:04;;;;;;;3.87;3.57;;;;;;;6.11;100.00;97301.56;4941153;29;20240;-36
2020/12/04 07:36:08;;;;;;;4.10;3.70;;;;;;;6.26;100.00;97306.06;4941136;29;20201;-38
2020/12/04 07:39:01;;;;;;;5.63;3.23;;;;;;;6.12;100.00;97311.75;4940100;29;20380;-38
2020/12/04 07:41:50;;;;;;;3.97;3.47;;;;;;;6.20;100.00;97319.13;4922377;29;20496;-34
2020/12/04 07:44:39;;;;;;;3.13;2.83;;;;;;;6.20;100.00;97325.09;4922162;29;20265;-33
2020/12/04 07:47:25;;;;;;;2.73;2.50;;;;;;;6.12;100.00;97314.31;4921487;29;20265;-34
2020/12/04 07:50:13;;;;;;;3.50;3.13;;;;;;;6.16;100.00;97323.59;4921077;29;20608;-35
2020/12/04 07:52:59;;;;;;;3.17;2.87;;;;;;;6.22;100.00;97323.31;4921090;29;20272;-36
2020/12/04 07:55:52;;;;;;;2.73;2.53;;;;;;;6.27;100.00;97327.44;4921606;29;20269;-33
2020/12/04 07:58:40;;;;;;;2.87;2.67;;;;;;;6.27;100.00;97330.84;4921667;29;20206;-37
2020/12/04 08:01:27;;;;;;;3.23;2.80;;;;;;;6.36;100.00;97330.50;4920961;29;20201;-35
2020/12/04 08:04:18;;;;;;;2.90;2.70;;;;;;;6.30;100.00;97333.31;4921150;29;20200;-33
2020/12/04 08:07:07;;;;;;;2.60;2.40;;;;;;;6.37;100.00;97334.75;4921861;29;20205;-36
2020/12/04 08:09:56;;;;;;;2.93;2.67;;;;;;;6.40;100.00;97350.00;4921255;29;20201;-38
2020/12/04 08:12:43;;;;;;;3.63;2.47;;;;;;;6.38;100.00;97354.38;4920514;29;20577;-36
2020/12/04 08:15:30;;;;;;;2.57;2.37;;;;;;;6.42;100.00;97355.06;4921409;29;20233;-33
2020/12/04 08:18:20;;;;;;;2.50;2.30;;;;;;;6.47;100.00;97363.44;4920745;29;20221;-37
2020/12/04 08:21:06;;;;;;;2.70;2.50;;;;;;;6.40;100.00;97356.88;4921041;29;20210;-37
2020/12/04 08:23:57;;;;;;;2.70;2.50;;;;;;;6.38;100.00;97353.56;4926460;29;20834;-36
2020/12/04 08:26:44;;;;;;;2.67;2.47;;;;;;;6.45;100.00;97365.22;4940032;29;20299;-34
2020/12/04 08:29:30;;;;;;;2.97;2.77;;;;;;;6.42;100.00;97355.91;4926314;29;20201;-35
2020/12/04 08:32:21;;;;;;;2.73;2.53;;;;;;;6.50;100.00;97361.59;4921200;29;20308;-39
2020/12/04 08:35:10;;;;;;;2.73;2.37;;;;;;;6.48;100.00;97357.41;4920669;29;20659;-34
2020/12/04 08:38:06;;;;;;;2.63;2.07;;;;;;;6.59;100.00;97357.84;4920808;29;20210;-34
2020/12/04 08:40:53;;;;;;;3.23;2.80;;;;;;;6.55;100.00;97362.25;4920962;29;20502;-34
2020/12/04 08:43:41;;;;;;;3.03;2.73;;;;;;;6.63;100.00;97367.06;4920692;29;20632;-35
2020/12/04 08:46:35;;;;;;;3.07;2.67;;;;;;;6.67;100.00;97366.06;4920100;29;20205;-37
2020/12/04 08:49:23;;;;;;;3.40;3.07;;;;;;;6.65;100.00;97365.28;4920651;29;20198;-35
2020/12/04 08:52:09;;;;;;;2.50;2.30;;;;;;;6.70;100.00;97365.94;4924904;29;20213;-37
2020/12/04 08:54:57;;;;;;;2.70;2.50;;;;;;;6.75;100.00;97369.16;4939898;29;20205;-34
2020/12/04 08:57:45;;;;;;;3.40;3.10;;;;;;;6.81;100.00;97374.03;4939533;29;20261;-32
2020/12/04 09:00:32;;;;;;;3.60;3.30;;;;;;;6.81;100.00;97373.19;4939294;29;20224;-34
2020/12/04 09:03:21;;;;;;;4.50;4.07;;;;;;;6.83;100.00;97368.81;4937940;29;20204;-35
2020/12/04 09:06:07;;;;;;;5.00;3.40;;;;;;;6.89;100.00;97377.13;4937772;29;20208;-34
2020/12/04 09:09:02;;;;;;;4.37;3.97;;;;;;;7.19;100.00;97380.16;4929507;29;20199;-36
2020/12/04 09:12:02;;;;;;;3.57;3.27;;;;;;;7.06;100.00;97376.44;4937927;29;20303;-33
2020/12/04 09:15:02;;;;;;;3.73;3.37;;;;;;;6.99;100.00;97376.78;4920000;29;20205;-36
2020/12/04 09:17:55;;;;;;;3.53;3.10;;;;;;;6.89;100.00;97384.00;4921155;29;20461;-35
2020/12/04 09:20:48;;;;;;;3.40;3.10;;;;;;;7.05;100.00;97384.19;4920617;29;20506;-38
2020/12/04 09:23:43;;;;;;;2.77;2.57;;;;;;;7.34;100.00;97390.72;4920703;29;20205;-37
2020/12/04 09:26:33;;;;;;;2.70;2.50;;;;;;;7.35;100.00;97398.38;4920491;29;20306;-34
2020/12/04 09:29:20;;;;;;;2.90;2.70;;;;;;;7.26;100.00;97391.84;4919972;29;20201;-34
2020/12/04 09:32:08;;;;;;;3.00;2.80;;;;;;;7.58;100.00;97397.38;4919686;29;20244;-34
2020/12/04 09:34:54;;;;;;;3.33;3.03;;;;;;;7.56;100.00;97397.44;4920300;29;20619;-33
2020/12/04 09:37:41;;;;;;;3.93;2.90;;;;;;;7.50;100.00;97404.59;4919513;29;20197;-33
2020/12/04 09:40:29;;;;;;;2.87;2.67;;;;;;;7.55;100.00;97400.09;4919764;29;20703;-33
2020/12/04 09:43:21;;;;;;;3.30;3.00;;;;;;;7.40;100.00;97400.72;4926620;29;20205;-35
2020/12/04 09:46:14;;;;;;;3.20;2.90;;;;;;;7.37;100.00;97403.44;4939239;29;20666;-33
2020/12/04 09:49:00;;;;;;;3.40;2.90;;;;;;;7.53;100.00;97407.88;4939428;29;20205;-35
2020/12/04 09:51:46;;;;;;;3.20;2.90;;;;;;;7.46;100.00;97400.47;4938160;29;20254;-35
2020/12/04 09:54:36;;;;;;;3.90;3.20;;;;;;;7.54;100.00;97390.69;4938270;29;20205;-33
2020/12/04 09:57:28;;;;;;;2.90;2.70;;;;;;;7.75;100.00;97399.22;4934623;29;20252;-33
2020/12/04 10:00:19;;;;;;;2.90;2.70;;;;;;;7.55;100.00;97392.38;4930544;29;20234;-35
2020/12/04 10:03:06;;;;;;;4.47;3.13;;;;;;;7.50;100.00;97399.44;4938471;29;20242;-34
2020/12/04 10:05:54;;;;;;;3.90;2.97;;;;;;;7.52;100.00;97407.94;4938325;29;20201;-33
2020/12/04 10:08:43;;;;;;;2.93;2.73;;;;;;;7.73;100.00;97406.16;4938287;29;20495;-32
2020/12/04 10:11:29;;;;;;;4.97;3.23;;;;;;;7.67;100.00;97414.13;4938071;29;20639;-35
2020/12/04 10:14:18;;;;;;;3.20;2.90;;;;;;;7.81;100.00;97419.50;4941945;29;20555;-35
2020/12/04 10:17:04;;;;;;;3.53;3.23;;;;;;;8.01;100.00;97418.63;4941563;29;20201;-33
2020/12/04 10:19:51;;;;;;;3.27;2.87;;;;;;;7.78;100.00;97419.69;4942163;29;20236;-36
2020/12/04 10:22:37;;;;;;;3.17;2.97;;;;;;;7.93;100.00;97419.81;4941904;29;20201;-36
2020/12/04 10:25:23;;;;;;;3.17;2.87;;;;;;;8.04;100.00;97433.94;4941501;29;20214;-36
2020/12/04 10:28:11;;;;;;;3.00;2.60;;;;;;;7.86;100.00;97433.84;4942131;29;20282;-35
2020/12/04 10:30:58;;;;;;;3.60;3.30;;;;;;;7.90;100.00;97448.25;4942027;29;20207;-34
2020/12/04 10:33:44;;;;;;;4.67;3.30;;;;;;;8.06;100.00;97457.88;4941338;29;20258;-33
2020/12/04 10:36:30;;;;;;;3.03;2.83;;;;;;;8.06;100.00;97445.00;4940860;29;20240;-34
2020/12/04 10:39:17;;;;;;;3.20;2.90;;;;;;;7.96;100.00;97444.59;4941357;29;20204;-38
2020/12/04 10:42:03;;;;;;;3.53;3.23;;;;;;;8.11;100.00;97463.66;4941919;29;20268;-33
2020/12/04 10:44:52;;;;;;;3.60;3.30;;;;;;;8.05;100.00;97466.50;4941461;29;20754;-34
2020/12/04 10:47:38;;;;;;;4.23;3.83;;;;;;;8.06;100.00;97450.16;4922970;29;20206;-36
2020/12/04 10:50:24;;;;;;;3.13;2.83;;;;;;;8.20;100.00;97447.78;4922714;29;20198;-33
2020/12/04 10:53:11;;;;;;;3.73;3.43;;;;;;;8.17;100.00;97440.25;4922299;29;20205;-34
2020/12/04 10:55:58;;;;;;;4.27;3.37;;;;;;;8.12;100.00;97437.03;4922334;29;20614;-34
2020/12/04 10:58:45;;;;;;;4.23;3.50;;;;;;;8.01;100.00;97432.34;4921426;29;20315;-33
2020/12/04 11:01:36;;;;;;;3.87;3.57;;;;;;;8.00;100.00;97445.28;4920695;29;20672;-35
2020/12/04 11:07:28;;;;;;;5.27;4.10;;;;;;;8.01;100.00;97426.34;4921412;29;20209;-37
2020/12/04 11:10:19;;;;;;;11.80;6.23;;;;;;;8.06;100.00;97435.56;4921404;29;20312;-32
2020/12/04 11:13:12;;;;;;;3.80;3.50;;;;;;;8.08;100.00;97438.06;4921827;29;20292;-37
2020/12/04 11:16:02;;;;;;;3.80;3.50;;;;;;;8.10;100.00;97449.13;4921636;29;20278;-33
2020/12/04 11:18:53;;;;;;;3.93;3.30;;;;;;;8.19;100.00;97459.03;4920884;29;20482;-33
2020/12/04 11:21:40;;;;;;;4.30;4.00;;;;;;;8.13;100.00;97456.72;4920853;29;20207;-34
2020/12/04 11:24:26;;;;;;;3.97;3.57;;;;;;;8.15;100.00;97462.63;4920503;29;20205;-32
2020/12/04 11:27:16;;;;;;;3.87;3.57;;;;;;;7.96;100.00;97460.03;4921210;29;20206;-37
2020/12/04 11:30:04;;;;;;;3.60;3.30;;;;;;;8.09;100.00;97462.91;4920954;29;20304;-34
2020/12/04 11:32:57;;;;;;;5.10;2.90;;;;;;;8.14;100.00;97448.09;4923375;29;20402;-35
2020/12/04 11:35:45;;;;;;;3.07;2.80;;;;;;;8.14;100.00;97440.38;4939627;29;20258;-32
2020/12/04 11:38:32;;;;;;;3.23;2.93;;;;;;;8.23;100.00;97432.22;4940417;29;20211;-35
2020/12/04 11:41:18;;;;;;;3.20;2.97;;;;;;;8.26;100.00;97439.81;4940091;29;20564;-35
2020/12/04 11:44:05;;;;;;;3.27;2.90;;;;;;;8.45;100.00;97445.81;4940845;29;20352;-34
2020/12/04 11:46:51;;;;;;;3.37;3.17;;;;;;;8.37;100.00;97450.50;4940504;29;20212;-33
2020/12/04 11:49:38;;;;;;;3.40;3.10;;;;;;;8.39;100.00;97456.44;4940515;29;20537;-34
2020/12/04 11:52:31;;;;;;;4.63;3.00;;;;;;;8.49;100.00;97455.09;4940194;29;20296;-39
2020/12/04 11:55:34;;;;;;;2.80;2.60;;;;;;;8.55;100.00;97449.66;4940446;29;20882;-37
2020/12/04 11:58:25;;;;;;;3.67;3.07;;;;;;;8.60;100.00;97449.41;4935455;29;20219;-34
2020/12/04 12:01:17;;;;;;;3.30;3.00;;;;;;;8.88;100.00;97436.09;4921403;29;20226;-38
2020/12/04 12:04:15;;;;;;;2.60;2.40;;;;;;;8.75;100.00;97447.88;4922961;29;20205;-34
2020/12/04 12:07:11;;;;;;;2.80;2.60;;;;;;;8.80;100.00;97453.63;4935629;29;20215;-35
2020/12/04 12:10:01;;;;;;;2.43;2.30;;;;;;;9.09;100.00;97454.84;4928592;29;20201;-33
2020/12/04 12:12:50;;;;;;;2.80;2.60;;;;;;;9.41;100.00;97455.84;4927711;29;20205;-36
2020/12/04 12:15:37;;;;;;;7.23;2.70;;;;;;;9.59;100.00;97455.75;4940731;29;20260;-33
2020/12/04 12:18:27;;;;;;;3.13;2.30;;;;;;;9.70;100.00;97462.97;4931210;29;20310;-32
2020/12/04 12:21:13;;;;;;;3.50;2.40;;;;;;;10.68;100.00;97459.50;4921081;29;20236;-32
2020/12/04 12:24:00;;;;;;;2.40;2.20;;;;;;;10.14;100.00;97458.09;4932868;29;20264;-35
2020/12/04 12:26:47;;;;;;;3.23;2.00;;;;;;;9.48;100.00;97464.94;4929152;29;20321;-35
2020/12/04 12:29:34;;;;;;;5.07;1.67;;;;;;;10.11;100.00;97458.25;4922472;29;20233;-34
2020/12/04 12:32:23;;;;;;;2.10;1.97;;;;;;;10.10;97.50;97446.25;4937859;29;20229;-35
2020/12/04 12:35:12;;;;;;;2.70;1.87;;;;;;;10.45;93.67;97441.00;4939813;29;20273;-36
2020/12/04 12:38:01;;;;;;;2.03;1.50;;;;;;;11.17;90.12;97440.44;4934301;29;20221;-35
2020/12/04 12:40:48;;;;;;;2.00;1.50;;;;;;;10.33;94.32;97442.50;4935658;29;20321;-32
2020/12/04 12:43:35;;;;;;;1.50;1.40;;;;;;;10.01;91.95;97439.81;4937552;29;20273;-34
2020/12/04 12:46:22;;;;;;;1.27;1.17;;;;;;;10.31;93.39;97439.16;4932180;29;20212;-35
2020/12/04 12:49:15;;;;;;;11.77;6.60;;;;;;;10.41;92.63;97442.91;4929313;29;20624;-34
2020/12/04 12:52:04;;;;;;;8.23;3.87;;;;;;;10.02;97.43;97444.06;4939531;29;20297;-33
2020/12/04 12:54:53;;;;;;;3.37;2.10;;;;;;;10.03;97.70;97456.06;4939723;29;20204;-33
2020/12/04 12:57:38;;;;;;;2.00;1.80;;;;;;;9.98;97.36;97458.06;4939901;29;20663;-32
2020/12/04 13:00:24;;;;;;;3.73;1.73;;;;;;;9.99;95.94;97472.63;4939540;29;20303;-35
2020/12/04 13:03:13;;;;;;;3.57;2.03;;;;;;;10.62;94.28;97469.34;4938931;29;20289;-33
2020/12/04 13:05:59;;;;;;;1.67;1.57;;;;;;;10.28;96.07;97470.31;4939182;29;20271;-34
2020/12/04 13:08:46;;;;;;;2.43;1.63;;;;;;;9.80;97.14;97463.31;4939461;29;20208;-32
2020/12/04 13:11:33;;;;;;;1.57;1.40;;;;;;;9.80;96.83;97458.16;4939834;29;20224;-35
2020/12/04 13:14:19;;;;;;;18.93;9.10;;;;;;;9.93;98.84;97454.06;4938855;29;20205;-32
2020/12/04 13:17:07;;;;;;;3.67;1.70;;;;;;;9.92;100.00;97457.53;4939341;29;20812;-32